sensor_id;sensor_type;location;lat;lon;timestamp;P1;durP1;ratioP1;P2;durP2;ratioP2
20997;SDS011;10657;51.276;6.390;2023-07-31T00:01:14;12.55;;;3.70;;
20997;SDS011;10657;51.276;6.390;2023-07-31T00:03:41;11.60;;;3.72;;
20997;SDS011;10657;51.276;6.390;2023-07-31T00:06:07;11.48;;;3.85;;
20997;SDS011;10657;51.276;6.390;2023-07-31T00:08:34;13.13;;;3.95;;
20997;SDS011;10657;51.276;6.390;2023-07-31T00:11:01;12.10;;;4.07;;
20997;SDS011;10657;51.276;6.390;2023-07-31T00:13:27;13.45;;;3.65;;
20997;SDS011;10657;51.276;6.390;2023-07-31T00:15:54;14.48;;;3.90;;
20997;SDS011;10657;51.276;6.390;2023-07-31T00:18:21;9.75;;;3.67;;
20997;SDS011;10657;51.276;6.390;2023-07-31T00:20:47;9.88;;;3.90;;
20997;SDS011;10657;51.276;6.390;2023-07-31T00:23:14;10.15;;;3.80;;
20997;SDS011;10657;51.276;6.390;2023-07-31T00:25:41;9.02;;;3.53;;
20997;SDS011;10657;51.276;6.390;2023-07-31T00:28:08;11.43;;;3.60;;
20997;SDS011;10657;51.276;6.390;2023-07-31T00:30:35;12.90;;;3.75;;
20997;SDS011;10657;51.276;6.390;2023-07-31T00:33:01;8.98;;;3.08;;
20997;SDS011;10657;51.276;6.390;2023-07-31T00:35:28;10.98;;;3.83;;
20997;SDS011;10657;51.276;6.390;2023-07-31T00:37:56;8.95;;;2.78;;
20997;SDS011;10657;51.276;6.390;2023-07-31T00:40:24;10.73;;;3.45;;
20997;SDS011;10657;51.276;6.390;2023-07-31T00:42:50;10.13;;;3.47;;
20997;SDS011;10657;51.276;6.390;2023-07-31T00:45:17;12.98;;;3.83;;
20997;SDS011;10657;51.276;6.390;2023-07-31T00:47:44;17.15;;;4.22;;
20997;SDS011;10657;51.276;6.390;2023-07-31T00:50:11;11.30;;;3.70;;
20997;SDS011;10657;51.276;6.390;2023-07-31T00:52:38;14.23;;;3.63;;
20997;SDS011;10657;51.276;6.390;2023-07-31T00:55:05;13.07;;;4.18;;
20997;SDS011;10657;51.276;6.390;2023-07-31T00:57:32;10.23;;;3.55;;
20997;SDS011;10657;51.276;6.390;2023-07-31T01:00:00;8.70;;;3.22;;
20997;SDS011;10657;51.276;6.390;2023-07-31T01:02:27;10.63;;;3.75;;
20997;SDS011;10657;51.276;6.390;2023-07-31T01:04:54;10.65;;;3.13;;
20997;SDS011;10657;51.276;6.390;2023-07-31T01:07:44;11.68;;;3.38;;
20997;SDS011;10657;51.276;6.390;2023-07-31T01:10:26;14.32;;;3.83;;
20997;SDS011;10657;51.276;6.390;2023-07-31T01:13:00;13.52;;;3.70;;
20997;SDS011;10657;51.276;6.390;2023-07-31T01:15:27;8.77;;;2.95;;
20997;SDS011;10657;51.276;6.390;2023-07-31T01:17:54;9.95;;;3.22;;
20997;SDS011;10657;51.276;6.390;2023-07-31T01:20:22;8.98;;;2.92;;
20997;SDS011;10657;51.276;6.390;2023-07-31T01:28:33;9.55;;;3.75;;
20997;SDS011;10657;51.276;6.390;2023-07-31T01:31:18;11.90;;;3.85;;
20997;SDS011;10657;51.276;6.390;2023-07-31T01:33:49;11.35;;;3.20;;
20997;SDS011;10657;51.276;6.390;2023-07-31T01:36:18;10.60;;;3.70;;
20997;SDS011;10657;51.276;6.390;2023-07-31T01:38:45;11.13;;;3.60;;
20997;SDS011;10657;51.276;6.390;2023-07-31T01:41:12;13.43;;;4.45;;
20997;SDS011;10657;51.276;6.390;2023-07-31T01:43:39;11.55;;;4.40;;
20997;SDS011;10657;51.276;6.390;2023-07-31T01:46:06;14.18;;;5.13;;
20997;SDS011;10657;51.276;6.390;2023-07-31T01:48:33;10.77;;;3.80;;
20997;SDS011;10657;51.276;6.390;2023-07-31T01:51:02;14.20;;;4.20;;
20997;SDS011;10657;51.276;6.390;2023-07-31T01:53:30;12.43;;;3.63;;
20997;SDS011;10657;51.276;6.390;2023-07-31T01:55:57;12.80;;;4.20;;
20997;SDS011;10657;51.276;6.390;2023-07-31T01:58:24;10.45;;;3.10;;
20997;SDS011;10657;51.276;6.390;2023-07-31T02:00:51;12.20;;;3.72;;
20997;SDS011;10657;51.276;6.390;2023-07-31T02:03:17;12.75;;;3.70;;
20997;SDS011;10657;51.276;6.390;2023-07-31T02:05:45;10.55;;;3.67;;
20997;SDS011;10657;51.276;6.390;2023-07-31T02:08:12;9.02;;;2.70;;
20997;SDS011;10657;51.276;6.390;2023-07-31T02:10:39;13.18;;;4.05;;
20997;SDS011;10657;51.276;6.390;2023-07-31T02:13:06;11.02;;;3.40;;
20997;SDS011;10657;51.276;6.390;2023-07-31T02:15:33;12.25;;;4.50;;
20997;SDS011;10657;51.276;6.390;2023-07-31T02:18:00;10.75;;;3.63;;
20997;SDS011;10657;51.276;6.390;2023-07-31T02:20:27;12.20;;;3.97;;
20997;SDS011;10657;51.276;6.390;2023-07-31T02:22:54;12.15;;;3.85;;
20997;SDS011;10657;51.276;6.390;2023-07-31T02:25:20;9.13;;;2.88;;
20997;SDS011;10657;51.276;6.390;2023-07-31T02:27:47;13.43;;;4.07;;
20997;SDS011;10657;51.276;6.390;2023-07-31T02:30:13;13.38;;;4.10;;
20997;SDS011;10657;51.276;6.390;2023-07-31T02:32:40;9.88;;;3.08;;
20997;SDS011;10657;51.276;6.390;2023-07-31T02:35:07;10.27;;;3.53;;
20997;SDS011;10657;51.276;6.390;2023-07-31T02:37:34;11.00;;;4.05;;
20997;SDS011;10657;51.276;6.390;2023-07-31T02:40:00;14.88;;;3.63;;
20997;SDS011;10657;51.276;6.390;2023-07-31T02:42:27;17.08;;;4.10;;
20997;SDS011;10657;51.276;6.390;2023-07-31T02:44:54;14.48;;;4.05;;
20997;SDS011;10657;51.276;6.390;2023-07-31T02:47:22;11.18;;;4.05;;
20997;SDS011;10657;51.276;6.390;2023-07-31T02:49:49;10.93;;;3.28;;
20997;SDS011;10657;51.276;6.390;2023-07-31T02:52:15;11.43;;;3.35;;
20997;SDS011;10657;51.276;6.390;2023-07-31T02:54:42;12.23;;;3.20;;
20997;SDS011;10657;51.276;6.390;2023-07-31T02:57:09;11.50;;;3.50;;
20997;SDS011;10657;51.276;6.390;2023-07-31T02:59:35;12.57;;;3.05;;
20997;SDS011;10657;51.276;6.390;2023-07-31T03:02:02;12.73;;;3.45;;
20997;SDS011;10657;51.276;6.390;2023-07-31T03:04:29;7.78;;;3.13;;
20997;SDS011;10657;51.276;6.390;2023-07-31T03:06:56;10.18;;;3.65;;
20997;SDS011;10657;51.276;6.390;2023-07-31T03:09:22;15.57;;;3.55;;
20997;SDS011;10657;51.276;6.390;2023-07-31T03:11:49;10.07;;;3.50;;
20997;SDS011;10657;51.276;6.390;2023-07-31T03:14:15;11.95;;;4.18;;
20997;SDS011;10657;51.276;6.390;2023-07-31T03:16:43;12.27;;;3.80;;
20997;SDS011;10657;51.276;6.390;2023-07-31T03:19:10;14.73;;;4.53;;
20997;SDS011;10657;51.276;6.390;2023-07-31T03:21:36;9.52;;;3.40;;
20997;SDS011;10657;51.276;6.390;2023-07-31T03:24:03;9.95;;;3.65;;
20997;SDS011;10657;51.276;6.390;2023-07-31T03:26:33;9.43;;;3.33;;
20997;SDS011;10657;51.276;6.390;2023-07-31T03:29:01;10.38;;;3.42;;
20997;SDS011;10657;51.276;6.390;2023-07-31T03:31:28;9.93;;;3.30;;
20997;SDS011;10657;51.276;6.390;2023-07-31T03:33:54;12.25;;;3.80;;
20997;SDS011;10657;51.276;6.390;2023-07-31T03:36:21;12.77;;;3.42;;
20997;SDS011;10657;51.276;6.390;2023-07-31T03:38:48;11.25;;;3.60;;
20997;SDS011;10657;51.276;6.390;2023-07-31T03:41:14;10.07;;;3.25;;
20997;SDS011;10657;51.276;6.390;2023-07-31T03:43:41;11.70;;;3.85;;
20997;SDS011;10657;51.276;6.390;2023-07-31T03:46:08;8.80;;;3.03;;
20997;SDS011;10657;51.276;6.390;2023-07-31T03:48:34;10.32;;;3.53;;
20997;SDS011;10657;51.276;6.390;2023-07-31T03:51:01;12.90;;;3.67;;
20997;SDS011;10657;51.276;6.390;2023-07-31T03:53:28;9.10;;;3.05;;
20997;SDS011;10657;51.276;6.390;2023-07-31T03:55:54;10.68;;;3.70;;
20997;SDS011;10657;51.276;6.390;2023-07-31T03:58:21;10.25;;;3.20;;
20997;SDS011;10657;51.276;6.390;2023-07-31T04:00:48;12.15;;;3.67;;
20997;SDS011;10657;51.276;6.390;2023-07-31T04:03:14;11.13;;;4.00;;
20997;SDS011;10657;51.276;6.390;2023-07-31T04:05:41;11.27;;;3.63;;
20997;SDS011;10657;51.276;6.390;2023-07-31T04:08:08;11.55;;;3.60;;
20997;SDS011;10657;51.276;6.390;2023-07-31T04:10:34;9.85;;;3.45;;
20997;SDS011;10657;51.276;6.390;2023-07-31T04:13:01;8.90;;;3.25;;
20997;SDS011;10657;51.276;6.390;2023-07-31T04:15:28;10.00;;;3.20;;
20997;SDS011;10657;51.276;6.390;2023-07-31T04:17:54;9.00;;;3.38;;
20997;SDS011;10657;51.276;6.390;2023-07-31T04:20:21;10.90;;;3.65;;
20997;SDS011;10657;51.276;6.390;2023-07-31T04:22:49;12.00;;;3.65;;
20997;SDS011;10657;51.276;6.390;2023-07-31T04:25:15;14.80;;;3.47;;
20997;SDS011;10657;51.276;6.390;2023-07-31T04:27:43;12.00;;;3.80;;
20997;SDS011;10657;51.276;6.390;2023-07-31T04:30:10;8.88;;;3.35;;
20997;SDS011;10657;51.276;6.390;2023-07-31T04:32:36;10.95;;;3.80;;
20997;SDS011;10657;51.276;6.390;2023-07-31T04:35:03;9.27;;;3.33;;
20997;SDS011;10657;51.276;6.390;2023-07-31T04:37:30;11.30;;;3.70;;
20997;SDS011;10657;51.276;6.390;2023-07-31T04:39:57;9.25;;;3.13;;
20997;SDS011;10657;51.276;6.390;2023-07-31T04:42:24;9.75;;;3.15;;
20997;SDS011;10657;51.276;6.390;2023-07-31T04:44:51;10.73;;;3.65;;
20997;SDS011;10657;51.276;6.390;2023-07-31T04:47:19;12.00;;;4.35;;
20997;SDS011;10657;51.276;6.390;2023-07-31T04:49:46;9.05;;;3.60;;
20997;SDS011;10657;51.276;6.390;2023-07-31T04:52:12;8.10;;;2.97;;
20997;SDS011;10657;51.276;6.390;2023-07-31T04:54:39;12.10;;;4.57;;
20997;SDS011;10657;51.276;6.390;2023-07-31T04:57:05;9.13;;;3.78;;
20997;SDS011;10657;51.276;6.390;2023-07-31T04:59:32;8.93;;;3.35;;
20997;SDS011;10657;51.276;6.390;2023-07-31T05:01:59;12.35;;;3.60;;
20997;SDS011;10657;51.276;6.390;2023-07-31T05:04:26;12.18;;;3.72;;
20997;SDS011;10657;51.276;6.390;2023-07-31T05:06:53;5.00;;;1.90;;
20997;SDS011;10657;51.276;6.390;2023-07-31T05:09:19;10.50;;;4.22;;
20997;SDS011;10657;51.276;6.390;2023-07-31T05:11:46;11.10;;;3.47;;
20997;SDS011;10657;51.276;6.390;2023-07-31T05:14:13;10.02;;;3.72;;
20997;SDS011;10657;51.276;6.390;2023-07-31T05:16:40;8.32;;;2.65;;
20997;SDS011;10657;51.276;6.390;2023-07-31T05:19:07;10.93;;;3.53;;
20997;SDS011;10657;51.276;6.390;2023-07-31T05:21:34;9.52;;;3.38;;
20997;SDS011;10657;51.276;6.390;2023-07-31T05:24:00;8.60;;;3.58;;
20997;SDS011;10657;51.276;6.390;2023-07-31T05:26:27;7.15;;;3.10;;
20997;SDS011;10657;51.276;6.390;2023-07-31T05:28:54;9.02;;;3.60;;
20997;SDS011;10657;51.276;6.390;2023-07-31T05:31:20;8.93;;;3.22;;
20997;SDS011;10657;51.276;6.390;2023-07-31T05:33:48;11.30;;;4.18;;
20997;SDS011;10657;51.276;6.390;2023-07-31T05:36:16;10.13;;;3.58;;
20997;SDS011;10657;51.276;6.390;2023-07-31T05:38:43;10.75;;;3.90;;
20997;SDS011;10657;51.276;6.390;2023-07-31T05:41:11;10.13;;;3.55;;
20997;SDS011;10657;51.276;6.390;2023-07-31T05:43:38;11.75;;;4.22;;
20997;SDS011;10657;51.276;6.390;2023-07-31T05:46:06;7.82;;;2.92;;
20997;SDS011;10657;51.276;6.390;2023-07-31T05:48:33;10.48;;;3.45;;
20997;SDS011;10657;51.276;6.390;2023-07-31T05:51:02;11.63;;;3.40;;
20997;SDS011;10657;51.276;6.390;2023-07-31T05:53:29;9.38;;;3.38;;
20997;SDS011;10657;51.276;6.390;2023-07-31T05:55:57;9.88;;;2.90;;
20997;SDS011;10657;51.276;6.390;2023-07-31T05:58:23;9.63;;;4.13;;
20997;SDS011;10657;51.276;6.390;2023-07-31T06:00:50;10.13;;;3.42;;
20997;SDS011;10657;51.276;6.390;2023-07-31T06:03:16;11.45;;;3.72;;
20997;SDS011;10657;51.276;6.390;2023-07-31T06:05:43;10.60;;;4.03;;
20997;SDS011;10657;51.276;6.390;2023-07-31T06:08:10;13.00;;;3.90;;
20997;SDS011;10657;51.276;6.390;2023-07-31T06:10:37;8.80;;;3.17;;
20997;SDS011;10657;51.276;6.390;2023-07-31T06:13:04;9.77;;;3.60;;
20997;SDS011;10657;51.276;6.390;2023-07-31T06:15:31;10.80;;;3.15;;
20997;SDS011;10657;51.276;6.390;2023-07-31T06:17:57;9.50;;;3.20;;
20997;SDS011;10657;51.276;6.390;2023-07-31T06:20:25;10.82;;;3.72;;
20997;SDS011;10657;51.276;6.390;2023-07-31T06:22:51;8.18;;;3.25;;
20997;SDS011;10657;51.276;6.390;2023-07-31T06:25:18;9.13;;;3.67;;
20997;SDS011;10657;51.276;6.390;2023-07-31T06:27:45;7.88;;;3.53;;
20997;SDS011;10657;51.276;6.390;2023-07-31T06:30:12;9.90;;;3.45;;
20997;SDS011;10657;51.276;6.390;2023-07-31T06:32:38;10.05;;;3.10;;
20997;SDS011;10657;51.276;6.390;2023-07-31T06:35:07;8.50;;;2.95;;
20997;SDS011;10657;51.276;6.390;2023-07-31T06:37:34;9.48;;;3.65;;
20997;SDS011;10657;51.276;6.390;2023-07-31T06:40:03;9.27;;;3.47;;
20997;SDS011;10657;51.276;6.390;2023-07-31T06:42:32;11.30;;;3.22;;
20997;SDS011;10657;51.276;6.390;2023-07-31T06:44:58;14.15;;;3.22;;
20997;SDS011;10657;51.276;6.390;2023-07-31T06:47:25;9.70;;;3.67;;
20997;SDS011;10657;51.276;6.390;2023-07-31T06:49:52;15.70;;;3.58;;
20997;SDS011;10657;51.276;6.390;2023-07-31T06:52:19;7.07;;;2.90;;
20997;SDS011;10657;51.276;6.390;2023-07-31T06:54:59;9.15;;;3.33;;
20997;SDS011;10657;51.276;6.390;2023-07-31T06:57:30;9.05;;;3.58;;
20997;SDS011;10657;51.276;6.390;2023-07-31T06:59:57;8.43;;;3.45;;
20997;SDS011;10657;51.276;6.390;2023-07-31T07:02:23;8.38;;;3.10;;
20997;SDS011;10657;51.276;6.390;2023-07-31T07:04:50;10.48;;;2.90;;
20997;SDS011;10657;51.276;6.390;2023-07-31T07:07:17;10.07;;;3.30;;
20997;SDS011;10657;51.276;6.390;2023-07-31T07:09:44;8.68;;;3.13;;
20997;SDS011;10657;51.276;6.390;2023-07-31T07:12:10;8.30;;;3.20;;
20997;SDS011;10657;51.276;6.390;2023-07-31T07:14:37;8.63;;;3.40;;
20997;SDS011;10657;51.276;6.390;2023-07-31T07:17:04;8.00;;;3.17;;
20997;SDS011;10657;51.276;6.390;2023-07-31T07:19:31;8.32;;;3.20;;
20997;SDS011;10657;51.276;6.390;2023-07-31T07:21:57;8.85;;;2.85;;
20997;SDS011;10657;51.276;6.390;2023-07-31T07:24:27;8.60;;;3.05;;
20997;SDS011;10657;51.276;6.390;2023-07-31T07:26:54;8.43;;;3.38;;
20997;SDS011;10657;51.276;6.390;2023-07-31T07:29:21;6.85;;;2.58;;
20997;SDS011;10657;51.276;6.390;2023-07-31T07:31:47;7.38;;;2.95;;
20997;SDS011;10657;51.276;6.390;2023-07-31T07:34:14;7.40;;;2.88;;
20997;SDS011;10657;51.276;6.390;2023-07-31T07:36:41;6.32;;;2.20;;
20997;SDS011;10657;51.276;6.390;2023-07-31T07:39:08;8.73;;;2.22;;
20997;SDS011;10657;51.276;6.390;2023-07-31T07:41:36;8.85;;;2.80;;
20997;SDS011;10657;51.276;6.390;2023-07-31T07:44:03;7.65;;;2.85;;
20997;SDS011;10657;51.276;6.390;2023-07-31T07:46:30;7.50;;;2.47;;
20997;SDS011;10657;51.276;6.390;2023-07-31T07:48:56;8.73;;;2.17;;
20997;SDS011;10657;51.276;6.390;2023-07-31T07:51:23;10.90;;;2.88;;
20997;SDS011;10657;51.276;6.390;2023-07-31T07:53:50;9.00;;;2.50;;
20997;SDS011;10657;51.276;6.390;2023-07-31T07:56:16;7.18;;;2.58;;
20997;SDS011;10657;51.276;6.390;2023-07-31T07:58:43;6.28;;;2.20;;
20997;SDS011;10657;51.276;6.390;2023-07-31T08:01:10;8.38;;;2.78;;
20997;SDS011;10657;51.276;6.390;2023-07-31T08:03:37;8.27;;;2.70;;
20997;SDS011;10657;51.276;6.390;2023-07-31T08:06:03;8.45;;;2.53;;
20997;SDS011;10657;51.276;6.390;2023-07-31T08:08:30;10.05;;;2.53;;
20997;SDS011;10657;51.276;6.390;2023-07-31T08:10:57;6.93;;;2.47;;
20997;SDS011;10657;51.276;6.390;2023-07-31T08:13:23;5.78;;;2.30;;
20997;SDS011;10657;51.276;6.390;2023-07-31T08:15:50;8.07;;;2.63;;
20997;SDS011;10657;51.276;6.390;2023-07-31T08:18:17;6.35;;;2.30;;
20997;SDS011;10657;51.276;6.390;2023-07-31T08:20:44;5.22;;;2.38;;
20997;SDS011;10657;51.276;6.390;2023-07-31T08:23:10;6.55;;;2.50;;
20997;SDS011;10657;51.276;6.390;2023-07-31T08:25:38;7.05;;;2.72;;
20997;SDS011;10657;51.276;6.390;2023-07-31T08:28:05;8.73;;;2.30;;
20997;SDS011;10657;51.276;6.390;2023-07-31T08:30:32;8.48;;;2.85;;
20997;SDS011;10657;51.276;6.390;2023-07-31T08:33:00;6.18;;;2.45;;
20997;SDS011;10657;51.276;6.390;2023-07-31T08:35:27;7.45;;;2.85;;
20997;SDS011;10657;51.276;6.390;2023-07-31T08:37:56;6.00;;;2.70;;
20997;SDS011;10657;51.276;6.390;2023-07-31T08:40:23;7.95;;;3.13;;
20997;SDS011;10657;51.276;6.390;2023-07-31T08:42:54;6.82;;;2.65;;
20997;SDS011;10657;51.276;6.390;2023-07-31T08:45:22;6.45;;;2.60;;
20997;SDS011;10657;51.276;6.390;2023-07-31T08:47:50;5.68;;;2.13;;
20997;SDS011;10657;51.276;6.390;2023-07-31T08:50:19;6.40;;;2.60;;
20997;SDS011;10657;51.276;6.390;2023-07-31T08:52:47;8.70;;;2.92;;
20997;SDS011;10657;51.276;6.390;2023-07-31T08:55:15;9.80;;;2.70;;
20997;SDS011;10657;51.276;6.390;2023-07-31T08:57:42;5.60;;;2.08;;
20997;SDS011;10657;51.276;6.390;2023-07-31T09:00:10;8.00;;;2.78;;
20997;SDS011;10657;51.276;6.390;2023-07-31T09:02:38;6.65;;;2.60;;
20997;SDS011;10657;51.276;6.390;2023-07-31T09:05:11;6.78;;;2.33;;
20997;SDS011;10657;51.276;6.390;2023-07-31T09:07:38;5.70;;;2.30;;
20997;SDS011;10657;51.276;6.390;2023-07-31T09:10:06;9.18;;;2.95;;
20997;SDS011;10657;51.276;6.390;2023-07-31T09:12:33;7.78;;;2.17;;
20997;SDS011;10657;51.276;6.390;2023-07-31T09:15:00;7.32;;;2.75;;
20997;SDS011;10657;51.276;6.390;2023-07-31T09:20:01;9.23;;;3.10;;
20997;SDS011;10657;51.276;6.390;2023-07-31T09:22:43;7.40;;;2.60;;
20997;SDS011;10657;51.276;6.390;2023-07-31T09:25:17;6.47;;;2.55;;
20997;SDS011;10657;51.276;6.390;2023-07-31T09:30:24;7.90;;;3.00;;
20997;SDS011;10657;51.276;6.390;2023-07-31T09:32:59;5.82;;;2.30;;
20997;SDS011;10657;51.276;6.390;2023-07-31T09:35:31;7.35;;;2.25;;
20997;SDS011;10657;51.276;6.390;2023-07-31T09:38:05;8.38;;;2.80;;
20997;SDS011;10657;51.276;6.390;2023-07-31T09:40:34;6.43;;;2.55;;
20997;SDS011;10657;51.276;6.390;2023-07-31T09:45:54;11.48;;;3.03;;
20997;SDS011;10657;51.276;6.390;2023-07-31T09:48:23;8.13;;;2.65;;
20997;SDS011;10657;51.276;6.390;2023-07-31T09:50:52;9.15;;;2.92;;
20997;SDS011;10657;51.276;6.390;2023-07-31T09:53:24;7.70;;;2.67;;
20997;SDS011;10657;51.276;6.390;2023-07-31T09:55:57;9.48;;;2.58;;
20997;SDS011;10657;51.276;6.390;2023-07-31T09:58:25;8.73;;;2.80;;
20997;SDS011;10657;51.276;6.390;2023-07-31T10:00:56;7.80;;;2.50;;
20997;SDS011;10657;51.276;6.390;2023-07-31T10:03:25;8.73;;;2.78;;
20997;SDS011;10657;51.276;6.390;2023-07-31T10:05:53;8.82;;;2.80;;
20997;SDS011;10657;51.276;6.390;2023-07-31T10:08:27;6.45;;;2.45;;
20997;SDS011;10657;51.276;6.390;2023-07-31T10:10:58;8.68;;;2.85;;
20997;SDS011;10657;51.276;6.390;2023-07-31T10:13:25;5.72;;;2.28;;
20997;SDS011;10657;51.276;6.390;2023-07-31T10:15:54;5.97;;;2.78;;
20997;SDS011;10657;51.276;6.390;2023-07-31T10:18:24;7.05;;;2.47;;
20997;SDS011;10657;51.276;6.390;2023-07-31T10:20:52;8.90;;;2.80;;
20997;SDS011;10657;51.276;6.390;2023-07-31T10:23:19;7.95;;;2.50;;
20997;SDS011;10657;51.276;6.390;2023-07-31T10:25:46;9.13;;;2.75;;
20997;SDS011;10657;51.276;6.390;2023-07-31T10:28:14;6.07;;;2.20;;
20997;SDS011;10657;51.276;6.390;2023-07-31T10:30:41;6.13;;;2.60;;
20997;SDS011;10657;51.276;6.390;2023-07-31T10:33:08;7.63;;;2.55;;
20997;SDS011;10657;51.276;6.390;2023-07-31T10:35:35;7.10;;;2.70;;
20997;SDS011;10657;51.276;6.390;2023-07-31T10:38:11;7.75;;;2.15;;
20997;SDS011;10657;51.276;6.390;2023-07-31T10:40:39;7.28;;;2.50;;
20997;SDS011;10657;51.276;6.390;2023-07-31T10:43:06;10.80;;;3.00;;
20997;SDS011;10657;51.276;6.390;2023-07-31T10:45:37;9.75;;;2.40;;
20997;SDS011;10657;51.276;6.390;2023-07-31T10:48:06;8.20;;;2.70;;
20997;SDS011;10657;51.276;6.390;2023-07-31T10:50:40;7.30;;;2.63;;
20997;SDS011;10657;51.276;6.390;2023-07-31T10:53:26;6.80;;;2.58;;
20997;SDS011;10657;51.276;6.390;2023-07-31T10:56:00;6.57;;;2.42;;
20997;SDS011;10657;51.276;6.390;2023-07-31T10:58:31;7.75;;;2.25;;
20997;SDS011;10657;51.276;6.390;2023-07-31T11:01:02;6.78;;;2.75;;
20997;SDS011;10657;51.276;6.390;2023-07-31T11:03:41;7.32;;;2.17;;
20997;SDS011;10657;51.276;6.390;2023-07-31T11:06:09;5.57;;;2.00;;
20997;SDS011;10657;51.276;6.390;2023-07-31T11:08:41;6.72;;;2.10;;
20997;SDS011;10657;51.276;6.390;2023-07-31T11:11:10;4.90;;;1.80;;
20997;SDS011;10657;51.276;6.390;2023-07-31T11:13:43;5.53;;;2.08;;
20997;SDS011;10657;51.276;6.390;2023-07-31T11:16:22;7.75;;;2.58;;
20997;SDS011;10657;51.276;6.390;2023-07-31T11:18:50;8.93;;;2.35;;
20997;SDS011;10657;51.276;6.390;2023-07-31T11:21:19;7.15;;;2.78;;
20997;SDS011;10657;51.276;6.390;2023-07-31T11:23:49;5.72;;;1.92;;
20997;SDS011;10657;51.276;6.390;2023-07-31T11:26:20;5.60;;;2.10;;
20997;SDS011;10657;51.276;6.390;2023-07-31T11:28:47;4.78;;;1.83;;
20997;SDS011;10657;51.276;6.390;2023-07-31T11:31:14;6.10;;;2.33;;
20997;SDS011;10657;51.276;6.390;2023-07-31T11:33:42;5.03;;;2.00;;
20997;SDS011;10657;51.276;6.390;2023-07-31T11:36:15;5.30;;;1.85;;
20997;SDS011;10657;51.276;6.390;2023-07-31T11:38:45;6.43;;;2.22;;
20997;SDS011;10657;51.276;6.390;2023-07-31T11:41:14;6.28;;;1.88;;
20997;SDS011;10657;51.276;6.390;2023-07-31T11:43:45;5.07;;;1.95;;
20997;SDS011;10657;51.276;6.390;2023-07-31T11:46:13;6.50;;;2.15;;
20997;SDS011;10657;51.276;6.390;2023-07-31T11:48:41;4.57;;;2.00;;
20997;SDS011;10657;51.276;6.390;2023-07-31T11:51:08;5.13;;;1.85;;
20997;SDS011;10657;51.276;6.390;2023-07-31T11:53:43;7.40;;;2.05;;
20997;SDS011;10657;51.276;6.390;2023-07-31T11:56:17;5.43;;;1.95;;
20997;SDS011;10657;51.276;6.390;2023-07-31T11:58:46;5.93;;;1.75;;
20997;SDS011;10657;51.276;6.390;2023-07-31T12:01:14;6.50;;;1.90;;
20997;SDS011;10657;51.276;6.390;2023-07-31T12:03:44;6.35;;;2.15;;
20997;SDS011;10657;51.276;6.390;2023-07-31T12:06:12;4.38;;;1.63;;
20997;SDS011;10657;51.276;6.390;2023-07-31T12:08:39;5.90;;;1.80;;
20997;SDS011;10657;51.276;6.390;2023-07-31T12:11:07;4.90;;;1.67;;
20997;SDS011;10657;51.276;6.390;2023-07-31T12:13:37;6.63;;;2.17;;
20997;SDS011;10657;51.276;6.390;2023-07-31T12:16:04;5.30;;;2.03;;
20997;SDS011;10657;51.276;6.390;2023-07-31T12:18:35;4.80;;;1.70;;
20997;SDS011;10657;51.276;6.390;2023-07-31T12:21:06;4.82;;;2.25;;
20997;SDS011;10657;51.276;6.390;2023-07-31T12:23:35;6.50;;;2.33;;
20997;SDS011;10657;51.276;6.390;2023-07-31T12:28:37;6.13;;;2.10;;
20997;SDS011;10657;51.276;6.390;2023-07-31T12:31:08;7.28;;;2.40;;
20997;SDS011;10657;51.276;6.390;2023-07-31T12:33:36;6.18;;;2.33;;
20997;SDS011;10657;51.276;6.390;2023-07-31T12:36:07;5.90;;;2.25;;
20997;SDS011;10657;51.276;6.390;2023-07-31T12:38:38;6.03;;;2.28;;
20997;SDS011;10657;51.276;6.390;2023-07-31T12:41:05;4.85;;;2.03;;
20997;SDS011;10657;51.276;6.390;2023-07-31T12:43:33;7.95;;;2.20;;
20997;SDS011;10657;51.276;6.390;2023-07-31T12:46:06;6.07;;;2.08;;
20997;SDS011;10657;51.276;6.390;2023-07-31T12:48:34;7.38;;;2.80;;
20997;SDS011;10657;51.276;6.390;2023-07-31T12:51:03;7.13;;;2.20;;
20997;SDS011;10657;51.276;6.390;2023-07-31T12:53:30;8.73;;;2.95;;
20997;SDS011;10657;51.276;6.390;2023-07-31T12:55:56;6.82;;;2.70;;
20997;SDS011;10657;51.276;6.390;2023-07-31T12:58:23;7.00;;;3.05;;
20997;SDS011;10657;51.276;6.390;2023-07-31T13:00:50;12.05;;;2.72;;
20997;SDS011;10657;51.276;6.390;2023-07-31T13:03:17;8.73;;;2.80;;
20997;SDS011;10657;51.276;6.390;2023-07-31T13:05:44;6.47;;;2.75;;
20997;SDS011;10657;51.276;6.390;2023-07-31T13:08:10;7.35;;;2.90;;
20997;SDS011;10657;51.276;6.390;2023-07-31T13:10:38;8.15;;;3.15;;
20997;SDS011;10657;51.276;6.390;2023-07-31T13:13:04;6.95;;;3.45;;
20997;SDS011;10657;51.276;6.390;2023-07-31T13:15:31;8.27;;;2.72;;
20997;SDS011;10657;51.276;6.390;2023-07-31T13:17:58;7.95;;;3.13;;
20997;SDS011;10657;51.276;6.390;2023-07-31T13:20:25;8.77;;;3.38;;
20997;SDS011;10657;51.276;6.390;2023-07-31T13:22:52;7.13;;;2.58;;
20997;SDS011;10657;51.276;6.390;2023-07-31T13:25:19;6.03;;;2.40;;
20997;SDS011;10657;51.276;6.390;2023-07-31T13:27:45;7.60;;;2.95;;
20997;SDS011;10657;51.276;6.390;2023-07-31T13:30:12;9.43;;;3.83;;
20997;SDS011;10657;51.276;6.390;2023-07-31T13:32:39;6.85;;;3.05;;
20997;SDS011;10657;51.276;6.390;2023-07-31T13:35:06;8.43;;;2.80;;
20997;SDS011;10657;51.276;6.390;2023-07-31T13:37:34;8.63;;;3.20;;
20997;SDS011;10657;51.276;6.390;2023-07-31T13:40:01;9.57;;;3.50;;
20997;SDS011;10657;51.276;6.390;2023-07-31T13:42:30;10.90;;;3.30;;
20997;SDS011;10657;51.276;6.390;2023-07-31T13:44:57;10.52;;;3.15;;
20997;SDS011;10657;51.276;6.390;2023-07-31T13:47:24;8.05;;;2.92;;
20997;SDS011;10657;51.276;6.390;2023-07-31T13:49:51;8.80;;;3.30;;
20997;SDS011;10657;51.276;6.390;2023-07-31T13:52:18;7.53;;;3.20;;
20997;SDS011;10657;51.276;6.390;2023-07-31T13:54:44;10.18;;;3.80;;
20997;SDS011;10657;51.276;6.390;2023-07-31T13:57:11;7.72;;;2.95;;
20997;SDS011;10657;51.276;6.390;2023-07-31T13:59:38;7.40;;;2.63;;
20997;SDS011;10657;51.276;6.390;2023-07-31T14:02:05;8.18;;;2.63;;
20997;SDS011;10657;51.276;6.390;2023-07-31T14:04:31;8.77;;;3.05;;
20997;SDS011;10657;51.276;6.390;2023-07-31T14:06:58;8.60;;;3.67;;
20997;SDS011;10657;51.276;6.390;2023-07-31T14:09:25;6.90;;;2.05;;
20997;SDS011;10657;51.276;6.390;2023-07-31T14:11:53;9.95;;;3.60;;
20997;SDS011;10657;51.276;6.390;2023-07-31T14:14:20;7.40;;;3.05;;
20997;SDS011;10657;51.276;6.390;2023-07-31T14:16:47;6.57;;;2.22;;
20997;SDS011;10657;51.276;6.390;2023-07-31T14:19:14;8.07;;;3.28;;
20997;SDS011;10657;51.276;6.390;2023-07-31T14:21:41;10.57;;;2.70;;
20997;SDS011;10657;51.276;6.390;2023-07-31T14:24:08;7.65;;;3.17;;
20997;SDS011;10657;51.276;6.390;2023-07-31T14:26:34;10.00;;;3.85;;
20997;SDS011;10657;51.276;6.390;2023-07-31T14:29:01;9.38;;;3.25;;
20997;SDS011;10657;51.276;6.390;2023-07-31T14:31:28;7.20;;;2.78;;
20997;SDS011;10657;51.276;6.390;2023-07-31T14:33:54;8.52;;;2.90;;
20997;SDS011;10657;51.276;6.390;2023-07-31T14:36:23;9.23;;;3.08;;
20997;SDS011;10657;51.276;6.390;2023-07-31T14:38:50;7.75;;;3.08;;
20997;SDS011;10657;51.276;6.390;2023-07-31T14:41:16;9.93;;;3.22;;
20997;SDS011;10657;51.276;6.390;2023-07-31T14:43:43;7.13;;;2.85;;
20997;SDS011;10657;51.276;6.390;2023-07-31T14:46:10;7.68;;;3.05;;
20997;SDS011;10657;51.276;6.390;2023-07-31T14:48:36;7.68;;;3.40;;
20997;SDS011;10657;51.276;6.390;2023-07-31T14:51:03;7.60;;;3.25;;
20997;SDS011;10657;51.276;6.390;2023-07-31T14:53:30;6.55;;;3.03;;
20997;SDS011;10657;51.276;6.390;2023-07-31T14:55:56;7.78;;;3.30;;
20997;SDS011;10657;51.276;6.390;2023-07-31T14:58:23;8.70;;;3.53;;
20997;SDS011;10657;51.276;6.390;2023-07-31T15:00:50;7.70;;;3.35;;
20997;SDS011;10657;51.276;6.390;2023-07-31T15:03:17;8.85;;;3.30;;